createdAt,value
2018-12-20T00:01:41.990Z,5.10
2018-12-20T00:04:11.613Z,5.10
2018-12-20T00:06:41.417Z,5.10
2018-12-20T00:09:11.229Z,5.10
2018-12-20T00:11:41.035Z,5.10
2018-12-20T00:14:10.707Z,5.10
2018-12-20T00:16:40.098Z,5.10
2018-12-20T00:19:09.889Z,5.20
2018-12-20T00:21:39.747Z,5.20
2018-12-20T00:24:09.407Z,5.20
2018-12-20T00:26:38.899Z,5.20
2018-12-20T00:29:08.686Z,5.20
2018-12-20T00:31:38.297Z,5.20
2018-12-20T00:34:08.140Z,5.20
2018-12-20T00:36:37.672Z,5.10
2018-12-20T00:39:07.867Z,5.10
2018-12-20T00:41:37.522Z,5.10
2018-12-20T00:44:07.044Z,5.20
2018-12-20T00:46:36.974Z,5.20
2018-12-20T00:49:06.705Z,5.20
2018-12-20T00:51:36.135Z,5.10
2018-12-20T00:54:05.737Z,5.20
2018-12-20T00:56:35.229Z,5.20
2018-12-20T00:59:05.279Z,5.10
2018-12-20T01:01:35.144Z,5.10
2018-12-20T01:04:04.851Z,5.10
2018-12-20T01:06:34.447Z,5.10
2018-12-20T01:09:06.850Z,5.20
2018-12-20T01:11:36.380Z,5.10
2018-12-20T01:14:06.950Z,5.10
2018-12-20T01:16:36.409Z,5.20
2018-12-20T01:19:06.203Z,5.20
2018-12-20T01:21:35.869Z,5.20
2018-12-20T01:24:05.620Z,5.20
2018-12-20T01:26:35.366Z,5.20
2018-12-20T01:29:05.413Z,5.20
2018-12-20T01:31:35.236Z,5.20
2018-12-20T01:34:05.264Z,5.20
2018-12-20T01:36:34.854Z,5.20
2018-12-20T01:39:06.691Z,5.10
2018-12-20T01:41:36.439Z,5.20
2018-12-20T01:44:06.205Z,5.20
2018-12-20T01:46:35.760Z,5.20
2018-12-20T01:49:05.487Z,5.20
2018-12-20T01:51:36.376Z,5.10
2018-12-20T01:54:06.127Z,5.10
2018-12-20T01:56:35.951Z,5.10
2018-12-20T01:59:05.809Z,5.10
2018-12-20T02:01:35.429Z,5.20
2018-12-20T02:04:05.239Z,5.20
2018-12-20T02:06:34.902Z,5.20
2018-12-20T02:09:08.245Z,5.20
2018-12-20T02:11:37.893Z,5.20
2018-12-20T02:14:07.520Z,5.20
2018-12-20T02:16:37.257Z,5.20
2018-12-20T02:19:06.895Z,5.20
2018-12-20T02:21:36.626Z,5.20
2018-12-20T02:24:06.386Z,5.20
2018-12-20T02:26:36.265Z,5.20
2018-12-20T02:29:05.847Z,5.20
2018-12-20T02:31:35.516Z,5.20
2018-12-20T02:34:04.989Z,5.20
2018-12-20T02:36:34.611Z,5.20
2018-12-20T02:39:07.613Z,5.20
2018-12-20T02:41:37.494Z,5.20
2018-12-20T02:44:07.213Z,5.20
2018-12-20T02:46:36.886Z,5.10
2018-12-20T02:49:06.970Z,5.20
2018-12-20T02:51:36.766Z,5.20
2018-12-20T02:54:06.556Z,5.10
2018-12-20T02:56:36.140Z,5.10
2018-12-20T02:59:06.206Z,5.10
2018-12-20T03:01:36.297Z,5.10
2018-12-20T03:04:06.215Z,5.10
2018-12-20T03:06:36.025Z,5.20
2018-12-20T03:09:08.176Z,5.20
2018-12-20T03:11:37.987Z,5.20
2018-12-20T03:14:07.675Z,5.20
2018-12-20T03:16:37.367Z,5.20
2018-12-20T03:19:07.119Z,5.30
2018-12-20T03:21:37.061Z,5.20
2018-12-20T03:24:06.849Z,5.20
2018-12-20T03:26:36.589Z,5.20
2018-12-20T03:29:06.460Z,5.30
2018-12-20T03:31:36.343Z,5.20
2018-12-20T03:34:05.988Z,5.20
2018-12-20T03:36:35.666Z,5.20
2018-12-20T03:39:07.806Z,5.20
2018-12-20T03:41:37.871Z,5.20
2018-12-20T03:44:07.781Z,5.20
2018-12-20T03:46:37.472Z,5.30
2018-12-20T03:49:07.167Z,5.30
2018-12-20T03:51:36.665Z,5.20
2018-12-20T03:54:06.561Z,5.20
2018-12-20T03:56:36.093Z,5.20
2018-12-20T03:59:05.818Z,5.20
2018-12-20T04:01:35.602Z,5.20
2018-12-20T04:04:05.445Z,5.20
2018-12-20T04:06:35.488Z,5.20
2018-12-20T04:09:07.679Z,5.20
2018-12-20T04:11:37.418Z,5.20
2018-12-20T04:14:07.068Z,5.20
2018-12-20T04:16:37.087Z,5.20
2018-12-20T04:19:06.802Z,5.20
2018-12-20T04:21:36.594Z,5.20
2018-12-20T04:24:06.404Z,5.20
2018-12-20T04:26:36.368Z,5.20
2018-12-20T04:29:06.117Z,5.10
2018-12-20T04:31:36.053Z,5.20
2018-12-20T04:34:05.627Z,5.20
2018-12-20T04:36:35.360Z,5.20
2018-12-20T04:39:07.560Z,5.20
2018-12-20T04:41:37.202Z,5.20
2018-12-20T04:44:06.951Z,5.20
2018-12-20T04:46:36.735Z,5.30
2018-12-20T04:49:06.630Z,5.30
2018-12-20T04:51:36.323Z,5.30
2018-12-20T04:54:06.084Z,5.30
2018-12-20T04:56:35.660Z,5.30
2018-12-20T04:59:05.430Z,5.30
2018-12-20T05:01:35.203Z,5.30
2018-12-20T05:04:05.238Z,5.30
2018-12-20T05:06:35.046Z,5.20
2018-12-20T05:09:07.157Z,5.30
2018-12-20T05:11:37.053Z,5.30
2018-12-20T05:14:06.878Z,5.30
2018-12-20T05:16:36.886Z,5.30
2018-12-20T05:19:06.342Z,5.30
2018-12-20T05:21:36.010Z,5.30
2018-12-20T05:24:06.330Z,5.30
2018-12-20T05:26:36.648Z,5.30
2018-12-20T05:29:06.411Z,5.40
2018-12-20T05:31:35.889Z,5.40
2018-12-20T05:34:05.665Z,5.40
2018-12-20T05:36:35.162Z,5.40
2018-12-20T05:39:07.568Z,5.40
2018-12-20T05:41:37.313Z,5.40
2018-12-20T05:44:07.216Z,5.40
2018-12-20T05:46:36.908Z,5.40
2018-12-20T05:49:06.752Z,5.40
2018-12-20T05:51:36.670Z,5.30
2018-12-20T05:54:06.629Z,5.30
2018-12-20T05:56:36.539Z,5.40
2018-12-20T05:59:06.391Z,5.40
2018-12-20T06:01:36.184Z,5.40
2018-12-20T06:04:06.370Z,5.40
2018-12-20T06:06:36.135Z,5.30
2018-12-20T06:09:08.090Z,5.30
2018-12-20T06:11:37.798Z,5.30
2018-12-20T06:14:07.598Z,5.30
2018-12-20T06:16:37.283Z,5.30
2018-12-20T06:19:06.871Z,5.20
2018-12-20T06:21:36.497Z,5.20
2018-12-20T06:24:06.183Z,5.20
2018-12-20T06:26:35.942Z,5.20
2018-12-20T06:29:05.636Z,5.20
2018-12-20T06:31:35.338Z,5.20
2018-12-20T06:34:04.970Z,5.20
2018-12-20T06:36:34.452Z,5.20
2018-12-20T06:39:07.111Z,5.20
2018-12-20T06:41:36.758Z,5.20
2018-12-20T06:44:07.290Z,5.20
2018-12-20T06:46:39.148Z,5.20
2018-12-20T06:49:08.825Z,5.20
2018-12-20T06:51:38.352Z,5.20
2018-12-20T06:54:08.107Z,5.20
2018-12-20T06:56:37.756Z,5.20
2018-12-20T06:59:07.412Z,5.20
2018-12-20T07:01:36.977Z,5.20
2018-12-20T07:04:06.708Z,5.20
2018-12-20T07:06:36.059Z,5.20
2018-12-20T07:09:08.718Z,5.20
2018-12-20T07:11:38.263Z,5.20
2018-12-20T07:14:08.021Z,5.20
2018-12-20T07:16:37.479Z,5.30
2018-12-20T07:19:07.207Z,5.30
2018-12-20T07:21:36.845Z,5.20
2018-12-20T07:24:06.415Z,5.20
2018-12-20T07:26:36.177Z,5.20
2018-12-20T07:29:05.829Z,5.20
2018-12-20T07:31:35.599Z,5.20
2018-12-20T07:34:05.165Z,5.20
2018-12-20T07:36:34.674Z,5.20
2018-12-20T07:39:07.271Z,5.20
2018-12-20T07:41:36.970Z,5.20
2018-12-20T07:44:06.568Z,5.20
2018-12-20T07:46:37.968Z,5.20
2018-12-20T07:49:07.695Z,5.20
2018-12-20T07:51:37.466Z,5.20
2018-12-20T07:54:06.810Z,5.20
2018-12-20T07:56:36.681Z,5.20
2018-12-20T07:59:06.294Z,5.20
2018-12-20T08:01:35.988Z,5.20
2018-12-20T08:04:05.440Z,5.20
2018-12-20T08:06:35.201Z,5.20
2018-12-20T08:09:07.694Z,5.20
2018-12-20T08:11:37.486Z,5.20
2018-12-20T08:14:07.191Z,5.20
2018-12-20T08:16:36.839Z,5.30
2018-12-20T08:19:06.347Z,5.30
2018-12-20T08:21:36.049Z,5.30
2018-12-20T08:24:05.829Z,5.40
2018-12-20T08:26:35.424Z,5.40
2018-12-20T08:29:05.059Z,5.40
2018-12-20T08:31:34.496Z,5.50
2018-12-20T08:34:03.982Z,5.60
2018-12-20T08:36:33.571Z,5.60
2018-12-20T08:39:05.144Z,5.60
2018-12-20T08:41:34.630Z,5.60
2018-12-20T08:44:04.370Z,5.60
2018-12-20T08:46:34.013Z,5.70
2018-12-20T08:49:03.511Z,5.70
2018-12-20T08:51:33.040Z,5.70
2018-12-20T08:54:02.595Z,5.80
2018-12-20T08:56:32.264Z,5.80
2018-12-20T08:59:01.706Z,5.80
2018-12-20T09:01:31.490Z,5.80
2018-12-20T09:04:01.354Z,5.80
2018-12-20T09:06:32.774Z,5.80
2018-12-20T09:09:02.426Z,5.90
2018-12-20T09:11:32.286Z,5.90
2018-12-20T09:14:02.030Z,5.90
2018-12-20T09:16:31.934Z,5.80
2018-12-20T09:19:01.602Z,5.90
2018-12-20T09:21:31.460Z,5.90
2018-12-20T09:24:01.074Z,5.90
2018-12-20T09:26:30.779Z,5.90
2018-12-20T09:29:00.439Z,5.90
2018-12-20T09:31:30.274Z,6.00
2018-12-20T09:34:00.097Z,6.00
2018-12-20T09:36:29.925Z,6.00
2018-12-20T09:38:59.511Z,6.10
2018-12-20T09:41:29.167Z,6.10
2018-12-20T09:43:58.730Z,6.10
2018-12-20T09:46:28.451Z,6.10
2018-12-20T09:48:57.954Z,6.10
2018-12-20T09:51:27.564Z,6.10
2018-12-20T09:53:57.213Z,6.10
2018-12-20T09:56:27.094Z,6.10
2018-12-20T09:58:56.636Z,6.10
2018-12-20T10:01:26.505Z,6.20
2018-12-20T10:03:56.208Z,6.10
2018-12-20T10:06:25.882Z,6.10
2018-12-20T10:08:55.654Z,6.10
2018-12-20T10:11:25.257Z,6.10
2018-12-20T10:13:54.762Z,6.20
2018-12-20T10:16:24.356Z,6.20
2018-12-20T10:18:53.987Z,6.20
2018-12-20T10:21:23.544Z,6.20
2018-12-20T10:23:53.346Z,6.30
2018-12-20T10:26:22.871Z,6.30
2018-12-20T10:28:52.604Z,6.20
2018-12-20T10:31:22.089Z,6.20
2018-12-20T10:33:51.631Z,6.20
2018-12-20T10:36:21.308Z,6.30
2018-12-20T10:38:50.908Z,6.30
2018-12-20T10:41:20.658Z,6.30
2018-12-20T10:43:50.262Z,6.20
2018-12-20T10:46:19.748Z,6.20
2018-12-20T10:48:49.516Z,6.20
2018-12-20T10:51:19.046Z,6.20
2018-12-20T10:53:48.592Z,6.30
2018-12-20T10:56:18.294Z,6.30
2018-12-20T10:58:48.158Z,6.40
2018-12-20T11:01:22.795Z,6.40
2018-12-20T11:03:56.542Z,6.50
2018-12-20T11:06:31.355Z,6.40
2018-12-20T11:09:06.228Z,6.50
2018-12-20T11:11:41.263Z,6.60
2018-12-20T11:14:10.752Z,6.60
2018-12-20T11:16:40.400Z,6.60
2018-12-20T11:19:10.215Z,6.60
2018-12-20T11:21:39.962Z,6.70
2018-12-20T11:24:09.647Z,6.60
2018-12-20T11:26:39.069Z,6.70
2018-12-20T11:29:08.719Z,6.70
2018-12-20T11:31:38.092Z,6.70
2018-12-20T11:34:07.856Z,6.70
2018-12-20T11:36:37.616Z,6.80
2018-12-20T11:39:08.567Z,6.80
2018-12-20T11:41:38.363Z,6.80
2018-12-20T11:44:07.907Z,6.80
2018-12-20T11:46:37.488Z,6.80
2018-12-20T11:49:06.998Z,6.80
2018-12-20T11:51:36.899Z,6.80
2018-12-20T11:54:06.532Z,6.80
2018-12-20T11:56:36.159Z,6.90
2018-12-20T11:59:05.861Z,6.90
2018-12-20T12:01:35.548Z,7.00
2018-12-20T12:04:05.046Z,7.00
2018-12-20T12:06:34.738Z,7.00
2018-12-20T12:09:07.509Z,7.10
2018-12-20T12:11:37.062Z,7.10
2018-12-20T12:14:06.659Z,7.20
2018-12-20T12:16:36.143Z,7.20
2018-12-20T12:19:05.786Z,7.20
2018-12-20T12:21:35.157Z,7.20
2018-12-20T12:24:05.004Z,7.20
2018-12-20T12:26:34.688Z,7.20
2018-12-20T12:29:04.522Z,7.20
2018-12-20T12:31:34.254Z,7.20
2018-12-20T12:34:03.851Z,7.20
2018-12-20T12:36:33.468Z,7.20
2018-12-20T12:39:04.148Z,7.40
2018-12-20T12:41:33.801Z,7.40
2018-12-20T12:44:03.600Z,7.30
2018-12-20T12:46:33.215Z,7.30
2018-12-20T12:49:02.874Z,7.30
2018-12-20T12:51:32.384Z,7.40
2018-12-20T12:54:01.951Z,7.40
2018-12-20T12:56:31.796Z,7.40
2018-12-20T12:59:01.260Z,7.40
2018-12-20T13:01:31.069Z,7.50
2018-12-20T13:04:00.589Z,7.40
2018-12-20T13:06:30.099Z,7.50
2018-12-20T13:08:59.798Z,7.50
2018-12-20T13:11:29.413Z,7.50
2018-12-20T13:13:58.986Z,7.60
2018-12-20T13:16:28.372Z,7.50
2018-12-20T13:18:58.033Z,7.50
2018-12-20T13:21:27.580Z,7.40
2018-12-20T13:23:57.274Z,7.40
2018-12-20T13:26:26.830Z,7.40
2018-12-20T13:28:56.532Z,7.30
2018-12-20T13:31:26.114Z,7.40
2018-12-20T13:33:56.010Z,7.40
2018-12-20T13:36:25.753Z,7.30
2018-12-20T13:38:55.520Z,7.30
2018-12-20T13:41:25.100Z,7.40
2018-12-20T13:43:54.637Z,7.30
2018-12-20T13:46:24.139Z,7.40
2018-12-20T13:48:53.935Z,7.30
2018-12-20T13:51:23.531Z,7.30
2018-12-20T13:53:54.141Z,7.20
2018-12-20T13:56:23.665Z,7.20
2018-12-20T13:58:53.193Z,7.20
2018-12-20T14:01:22.737Z,7.20
2018-12-20T14:03:52.592Z,7.10
2018-12-20T14:06:22.155Z,7.10
2018-12-20T14:08:51.855Z,7.10
2018-12-20T14:11:21.386Z,7.10
2018-12-20T14:13:50.974Z,7.10
2018-12-20T14:16:20.793Z,7.10
2018-12-20T14:18:50.475Z,7.10
2018-12-20T14:21:19.963Z,7.10
2018-12-20T14:23:49.456Z,7.10
2018-12-20T14:26:19.196Z,7.10
2018-12-20T14:28:48.883Z,7.10
2018-12-20T14:31:18.731Z,7.10
2018-12-20T14:33:48.309Z,7.20
2018-12-20T14:36:17.929Z,7.20
2018-12-20T14:38:47.422Z,7.20
2018-12-20T14:41:17.051Z,7.30
2018-12-20T14:43:46.532Z,7.30
2018-12-20T14:46:16.053Z,7.30
2018-12-20T14:48:46.930Z,7.40
2018-12-20T14:51:16.368Z,7.30
2018-12-20T14:53:46.091Z,7.30
2018-12-20T14:56:15.679Z,7.30
2018-12-20T14:58:45.258Z,7.30
2018-12-20T15:01:14.772Z,7.30
2018-12-20T15:03:45.380Z,7.20
2018-12-20T15:06:15.058Z,7.20
2018-12-20T15:08:44.654Z,7.20
2018-12-20T15:11:14.394Z,7.20
2018-12-20T15:13:44.120Z,7.10
2018-12-20T15:16:13.636Z,7.10
2018-12-20T15:18:47.582Z,7.10
2018-12-20T15:21:15.057Z,7.10
2018-12-20T15:23:44.500Z,7.00
2018-12-20T15:26:14.027Z,7.00
2018-12-20T15:28:43.776Z,7.00
2018-12-20T15:31:13.509Z,7.00
2018-12-20T15:33:43.162Z,7.00
2018-12-20T15:36:12.696Z,7.00
2018-12-20T15:38:42.128Z,6.90
2018-12-20T15:41:11.725Z,6.90
2018-12-20T15:43:41.396Z,6.90
2018-12-20T15:46:10.938Z,6.90
2018-12-20T15:48:40.628Z,6.80
2018-12-20T15:51:10.294Z,6.80
2018-12-20T15:53:39.907Z,6.80
2018-12-20T15:56:09.370Z,6.80
2018-12-20T15:58:39.048Z,6.80
2018-12-20T16:01:08.721Z,6.70
2018-12-20T16:03:38.127Z,6.70
2018-12-20T16:06:07.941Z,6.70
2018-12-20T16:08:37.511Z,6.70
2018-12-20T16:11:06.918Z,6.60
2018-12-20T16:13:36.548Z,6.60
2018-12-20T16:16:06.128Z,6.60
2018-12-20T16:18:35.846Z,6.60
2018-12-20T16:21:05.441Z,6.60
2018-12-20T16:23:35.099Z,6.60
2018-12-20T16:26:04.813Z,6.60
2018-12-20T16:28:34.362Z,6.60
2018-12-20T16:31:03.948Z,6.60
2018-12-20T16:33:33.625Z,6.60
2018-12-20T16:36:03.226Z,6.60
2018-12-20T16:38:32.862Z,6.60
2018-12-20T16:41:02.409Z,6.60
2018-12-20T16:43:32.019Z,6.60
2018-12-20T16:46:01.659Z,6.60
2018-12-20T16:48:31.160Z,6.60
2018-12-20T16:51:00.771Z,6.60
2018-12-20T16:53:30.458Z,6.60
2018-12-20T16:56:00.194Z,6.60
2018-12-20T16:58:29.683Z,6.50
2018-12-20T17:00:59.103Z,6.50
2018-12-20T17:03:28.838Z,6.50
2018-12-20T17:05:58.819Z,6.50
2018-12-20T17:08:28.452Z,6.50
2018-12-20T17:10:58.055Z,6.50
2018-12-20T17:13:27.647Z,6.50
2018-12-20T17:15:57.388Z,6.40
2018-12-20T17:18:26.876Z,6.40
2018-12-20T17:20:56.359Z,6.40
2018-12-20T17:23:25.915Z,6.30
2018-12-20T17:25:55.470Z,6.40
2018-12-20T17:28:25.102Z,6.30
2018-12-20T17:30:54.515Z,6.30
2018-12-20T17:33:24.093Z,6.30
2018-12-20T17:35:53.737Z,6.30
2018-12-20T17:38:23.430Z,6.30
2018-12-20T17:40:53.030Z,6.30
2018-12-20T17:43:22.668Z,6.20
2018-12-20T17:45:52.277Z,6.30
2018-12-20T17:48:29.038Z,6.20
2018-12-20T17:50:53.561Z,6.20
2018-12-20T17:53:23.023Z,6.20
2018-12-20T17:55:52.508Z,6.20
2018-12-20T17:58:22.109Z,6.20
2018-12-20T18:00:51.731Z,6.20
2018-12-20T18:03:21.403Z,6.20
2018-12-20T18:05:51.432Z,6.10
2018-12-20T18:08:21.032Z,6.10
2018-12-20T18:10:50.797Z,6.10
2018-12-20T18:13:20.691Z,6.10
2018-12-20T18:15:50.496Z,6.10
2018-12-20T18:18:20.428Z,6.10
2018-12-20T18:20:50.611Z,6.00
2018-12-20T18:23:21.470Z,6.00
2018-12-20T18:25:51.499Z,6.00
2018-12-20T18:28:21.134Z,6.00
2018-12-20T18:30:50.663Z,6.00
2018-12-20T18:33:20.214Z,6.00
2018-12-20T18:35:50.314Z,6.00
2018-12-20T18:38:20.508Z,6.00
2018-12-20T18:40:49.944Z,5.90
2018-12-20T18:43:19.758Z,5.90
2018-12-20T18:45:49.403Z,5.90
2018-12-20T18:48:18.998Z,5.90
2018-12-20T18:50:48.664Z,5.90
2018-12-20T18:53:18.186Z,5.90
2018-12-20T18:55:47.795Z,5.90
2018-12-20T18:58:17.223Z,5.90
2018-12-20T19:00:47.180Z,5.90
2018-12-20T19:03:16.855Z,5.90
2018-12-20T19:05:46.566Z,5.90
2018-12-20T19:08:16.174Z,5.80
2018-12-20T19:10:45.829Z,5.80
2018-12-20T19:13:15.184Z,5.80
2018-12-20T19:15:44.710Z,5.80
2018-12-20T19:18:14.558Z,5.80
2018-12-20T19:20:44.296Z,5.80
2018-12-20T19:23:14.033Z,5.80
2018-12-20T19:25:43.500Z,5.80
2018-12-20T19:28:13.306Z,5.80
2018-12-20T19:30:42.970Z,5.80
2018-12-20T19:33:12.571Z,5.80
2018-12-20T19:35:41.959Z,5.80
2018-12-20T19:38:11.589Z,5.80
2018-12-20T19:40:43.146Z,5.80
2018-12-20T19:43:12.570Z,5.80
2018-12-20T19:45:45.946Z,5.70
2018-12-20T19:48:13.943Z,5.70
2018-12-20T19:50:43.397Z,5.70
2018-12-20T19:53:13.054Z,5.70
2018-12-20T19:55:43.170Z,5.60
2018-12-20T19:58:12.855Z,5.60
2018-12-20T20:00:42.443Z,5.70
2018-12-20T20:03:12.210Z,5.60
2018-12-20T20:05:41.851Z,5.70
2018-12-20T20:08:11.517Z,5.70
2018-12-20T20:10:41.060Z,5.70
2018-12-20T20:13:19.052Z,5.70
2018-12-20T20:15:42.386Z,5.70
2018-12-20T20:18:11.886Z,5.70
2018-12-20T20:20:41.461Z,5.70
2018-12-20T20:23:10.998Z,5.70
2018-12-20T20:25:40.482Z,5.70
2018-12-20T20:28:09.847Z,5.70
2018-12-20T20:30:39.713Z,5.70
2018-12-20T20:33:09.367Z,5.70
2018-12-20T20:35:39.143Z,5.70
2018-12-20T20:38:08.724Z,5.60
2018-12-20T20:40:39.278Z,5.60
2018-12-20T20:43:08.907Z,5.60
2018-12-20T20:45:38.428Z,5.60
2018-12-20T20:48:08.187Z,5.60
2018-12-20T20:50:37.714Z,5.60
2018-12-20T20:53:07.392Z,5.60
2018-12-20T20:55:37.048Z,5.60
2018-12-20T20:58:06.666Z,5.60
2018-12-20T21:00:36.256Z,5.60
2018-12-20T21:03:05.809Z,5.60
2018-12-20T21:05:35.545Z,5.60
2018-12-20T21:08:05.265Z,5.60
2018-12-20T21:10:34.866Z,5.60
2018-12-20T21:13:04.603Z,5.70
2018-12-20T21:15:34.326Z,5.60
2018-12-20T21:18:04.139Z,5.60
2018-12-20T21:20:33.711Z,5.60
2018-12-20T21:23:03.322Z,5.60
2018-12-20T21:25:32.915Z,5.60
2018-12-20T21:28:02.900Z,5.60
2018-12-20T21:30:32.462Z,5.60
2018-12-20T21:33:02.322Z,5.60
2018-12-20T21:35:32.767Z,5.60
2018-12-20T21:38:02.536Z,5.60
2018-12-20T21:40:32.034Z,5.60
2018-12-20T21:43:02.953Z,5.60
2018-12-20T21:45:33.263Z,5.60
2018-12-20T21:48:02.980Z,5.60
2018-12-20T21:50:38.960Z,5.60
2018-12-20T21:53:05.074Z,5.50
2018-12-20T21:55:34.508Z,5.50
2018-12-20T21:58:04.179Z,5.50
2018-12-20T22:00:33.703Z,5.50
2018-12-20T22:03:03.198Z,5.40
2018-12-20T22:05:32.918Z,5.50
2018-12-20T22:08:02.502Z,5.40
2018-12-20T22:10:31.999Z,5.40
2018-12-20T22:13:01.644Z,5.40
2018-12-20T22:15:31.256Z,5.40
2018-12-20T22:18:00.979Z,5.40
2018-12-20T22:20:30.510Z,5.40
2018-12-20T22:23:00.191Z,5.40
2018-12-20T22:25:29.626Z,5.40
2018-12-20T22:27:59.222Z,5.40
2018-12-20T22:30:28.590Z,5.40
2018-12-20T22:32:58.232Z,5.40
2018-12-20T22:35:27.795Z,5.40
2018-12-20T22:37:57.511Z,5.40
2018-12-20T22:40:27.118Z,5.40
2018-12-20T22:42:56.586Z,5.40
2018-12-20T22:45:25.933Z,5.50
2018-12-20T22:47:55.488Z,5.50
2018-12-20T22:50:25.121Z,5.50
2018-12-20T22:52:54.848Z,5.50
2018-12-20T22:55:24.361Z,5.50
2018-12-20T22:57:54.099Z,5.60
2018-12-20T23:00:23.795Z,5.60
2018-12-20T23:02:53.276Z,5.60
2018-12-20T23:05:22.767Z,5.60
2018-12-20T23:07:52.405Z,5.60
2018-12-20T23:10:21.942Z,5.60
2018-12-20T23:12:51.610Z,5.60
2018-12-20T23:15:21.552Z,5.60
2018-12-20T23:17:51.243Z,5.50
2018-12-20T23:20:20.629Z,5.50
2018-12-20T23:22:50.229Z,5.60
2018-12-20T23:25:19.870Z,5.60
2018-12-20T23:27:49.416Z,5.60
2018-12-20T23:30:18.940Z,5.60
2018-12-20T23:32:48.630Z,5.50
2018-12-20T23:35:18.006Z,5.60
2018-12-20T23:37:47.606Z,5.60
2018-12-20T23:40:17.286Z,5.60
2018-12-20T23:42:48.593Z,5.60
2018-12-20T23:45:18.056Z,5.60
2018-12-20T23:47:47.683Z,5.60
2018-12-20T23:50:17.317Z,5.60
2018-12-20T23:52:46.782Z,5.60
2018-12-20T23:55:16.723Z,5.60
2018-12-20T23:57:46.185Z,5.60
